createdAt,value
2022-09-17T00:01:41.581Z,99662.03
2022-09-17T00:04:10.783Z,99666.19
2022-09-17T00:06:38.628Z,99661.09
2022-09-17T00:09:07.988Z,99669.69
2022-09-17T00:11:38.004Z,99661.91
2022-09-17T00:14:09.164Z,99673.06
2022-09-17T00:16:38.599Z,99669.63
2022-09-17T00:19:11.201Z,99670.50
2022-09-17T00:21:38.893Z,99668.91
2022-09-17T00:24:07.957Z,99672.44
2022-09-17T00:26:36.663Z,99666.41
2022-09-17T00:29:05.763Z,99674.81
2022-09-17T00:31:33.587Z,99670.34
2022-09-17T00:34:03.595Z,99675.50
2022-09-17T00:36:35.072Z,99674.78
2022-09-17T00:39:04.312Z,99677.38
2022-09-17T00:41:33.764Z,99684.25
2022-09-17T00:44:22.484Z,99679.03
2022-09-17T00:46:53.302Z,99682.59
2022-09-17T00:49:27.680Z,99677.25
2022-09-17T00:52:00.869Z,99678.72
2022-09-17T00:54:29.204Z,99673.47
2022-09-17T00:56:58.124Z,99680.31
2022-09-17T00:59:26.508Z,99678.53
2022-09-17T01:01:57.802Z,99680.25
2022-09-17T01:04:28.340Z,99682.81
2022-09-17T01:07:06.959Z,99686.19
2022-09-17T01:09:43.070Z,99681.94
2022-09-17T01:12:27.048Z,99685.31
2022-09-17T01:15:06.979Z,99689.72
2022-09-17T01:17:44.178Z,99682.16
2022-09-17T01:20:41.863Z,99696.84
2022-09-17T01:23:37.606Z,99700.16
2022-09-17T01:26:28.100Z,99706.22
2022-09-17T01:29:05.112Z,99706.13
2022-09-17T01:31:42.015Z,99706.09
2022-09-17T01:34:20.104Z,99712.16
2022-09-17T01:37:03.258Z,99712.13
2022-09-17T01:39:39.021Z,99704.38
2022-09-17T01:42:18.623Z,99700.81
2022-09-17T01:44:54.755Z,99698.28
2022-09-17T01:47:28.103Z,99710.19
2022-09-17T01:50:01.452Z,99714.59
2022-09-17T01:52:32.561Z,99719.78
2022-09-17T01:55:04.722Z,99713.63
2022-09-17T01:57:37.286Z,99711.09
2022-09-17T02:00:09.647Z,99709.19
2022-09-17T02:02:46.354Z,99705.59
2022-09-17T02:05:20.204Z,99705.50
2022-09-17T02:07:53.468Z,99702.09
2022-09-17T02:10:25.493Z,99708.16
2022-09-17T02:12:59.785Z,99708.28
2022-09-17T02:15:30.203Z,99703.97
2022-09-17T02:18:04.809Z,99706.53
2022-09-17T02:20:41.847Z,99701.31
2022-09-17T02:23:15.411Z,99693.63
2022-09-17T02:25:45.280Z,99690.22
2022-09-17T02:28:17.306Z,99691.75
2022-09-17T02:30:45.041Z,99687.47
2022-09-17T02:33:15.952Z,99696.97
2022-09-17T02:35:47.028Z,99691.84
2022-09-17T02:38:14.606Z,99696.97
2022-09-17T02:40:47.257Z,99691.88
2022-09-17T02:43:23.181Z,99695.13
2022-09-17T02:46:02.430Z,99691.69
2022-09-17T02:48:50.090Z,99685.28
2022-09-17T02:51:29.158Z,99685.13
2022-09-17T02:54:06.733Z,99689.41
2022-09-17T02:56:46.046Z,99702.16
2022-09-17T02:59:20.824Z,99710.75
2022-09-17T03:01:57.859Z,99704.69
2022-09-17T03:04:29.285Z,99694.38
2022-09-17T03:06:58.588Z,99695.97
2022-09-17T03:09:26.141Z,99705.34
2022-09-17T03:11:53.671Z,99702.84
2022-09-17T03:14:21.272Z,99707.88
2022-09-17T03:16:48.852Z,99712.97
2022-09-17T03:19:16.453Z,99707.59
2022-09-17T03:21:45.536Z,99714.38
2022-09-17T03:24:13.427Z,99712.63
2022-09-17T03:26:40.947Z,99723.00
2022-09-17T03:29:08.460Z,99724.75
2022-09-17T03:31:36.153Z,99728.28
2022-09-17T03:34:03.771Z,99725.56
2022-09-17T03:36:31.414Z,99726.47
2022-09-17T03:39:00.605Z,99730.72
2022-09-17T03:41:28.249Z,99727.25
2022-09-17T03:43:55.772Z,99732.47
2022-09-17T03:46:23.290Z,99725.41
2022-09-17T03:48:50.941Z,99734.91
2022-09-17T03:51:18.514Z,99734.84
2022-09-17T03:53:46.022Z,99739.97
2022-09-17T03:56:14.948Z,99749.41
2022-09-17T03:58:42.470Z,99739.13
2022-09-17T04:01:10.211Z,99734.72
2022-09-17T04:03:37.889Z,99746.50
2022-09-17T04:06:05.475Z,99732.66
2022-09-17T04:08:33.816Z,99743.03
2022-09-17T04:11:01.333Z,99741.13
2022-09-17T04:13:30.192Z,99750.53
2022-09-17T04:15:57.768Z,99751.38
2022-09-17T04:18:25.408Z,99755.91
2022-09-17T04:20:53.055Z,99755.31
2022-09-17T04:23:21.075Z,99757.00
2022-09-17T04:25:48.584Z,99752.81
2022-09-17T04:28:16.773Z,99749.50
2022-09-17T04:30:45.630Z,99750.34
2022-09-17T04:33:13.174Z,99760.56
2022-09-17T04:35:40.712Z,99753.56
2022-09-17T04:38:08.255Z,99757.91
2022-09-17T04:40:36.017Z,99764.06
2022-09-17T04:43:04.086Z,99760.56
2022-09-17T04:45:33.337Z,99765.81
2022-09-17T04:48:02.812Z,99776.03
2022-09-17T04:50:30.390Z,99782.97
2022-09-17T04:52:58.632Z,99782.78
2022-09-17T04:55:27.677Z,99778.22
2022-09-17T04:57:55.545Z,99786.25
2022-09-17T05:00:24.359Z,99785.56
2022-09-17T05:02:53.429Z,99780.31
2022-09-17T05:05:23.624Z,99776.84
2022-09-17T05:07:51.288Z,99785.69
2022-09-17T05:10:20.729Z,99785.16
2022-09-17T05:12:49.720Z,99783.19
2022-09-17T05:15:18.013Z,99790.56
2022-09-17T05:17:45.783Z,99798.28
2022-09-17T05:20:14.013Z,99803.34
2022-09-17T05:22:44.743Z,99798.16
2022-09-17T05:25:12.565Z,99806.78
2022-09-17T05:27:40.607Z,99800.91
2022-09-17T05:30:10.069Z,99815.72
2022-09-17T05:32:38.970Z,99806.16
2022-09-17T05:35:08.049Z,99803.00
2022-09-17T05:37:35.615Z,99806.56
2022-09-17T05:40:05.940Z,99810.91
2022-09-17T05:42:33.656Z,99810.91
2022-09-17T05:45:01.258Z,99818.44
2022-09-17T05:47:28.801Z,99824.38
2022-09-17T05:49:56.767Z,99827.16
2022-09-17T05:52:28.003Z,99820.63
2022-09-17T05:54:55.734Z,99820.88
2022-09-17T05:57:24.779Z,99826.22
2022-09-17T05:59:52.454Z,99836.28
2022-09-17T06:02:20.115Z,99829.81
2022-09-17T06:04:47.661Z,99822.34
2022-09-17T06:07:15.249Z,99831.13
2022-09-17T06:09:42.802Z,99831.53
2022-09-17T06:12:10.334Z,99835.84
2022-09-17T06:14:39.246Z,99832.97
2022-09-17T06:17:06.752Z,99834.78
2022-09-17T06:19:34.275Z,99841.88
2022-09-17T06:22:02.113Z,99838.53
2022-09-17T06:24:29.692Z,99841.81
2022-09-17T06:26:57.220Z,99849.41
2022-09-17T06:29:25.068Z,99850.97
2022-09-17T06:31:54.055Z,99858.47
2022-09-17T06:34:21.609Z,99850.59
2022-09-17T06:36:49.661Z,99850.16
2022-09-17T06:39:17.434Z,99855.88
2022-09-17T06:41:46.028Z,99846.94
2022-09-17T06:44:13.713Z,99838.81
2022-09-17T06:46:41.465Z,99849.56
2022-09-17T06:49:11.596Z,99848.09
2022-09-17T06:51:39.103Z,99854.78
2022-09-17T06:54:06.754Z,99858.72
2022-09-17T06:56:34.542Z,99859.16
2022-09-17T06:59:02.580Z,99857.88
2022-09-17T07:01:30.219Z,99861.81
2022-09-17T07:03:58.041Z,99855.84
2022-09-17T07:06:26.911Z,99864.88
2022-09-17T07:08:54.474Z,99866.25
2022-09-17T07:11:22.675Z,99869.25
2022-09-17T07:13:50.227Z,99863.25
2022-09-17T07:16:17.842Z,99861.97
2022-09-17T07:18:45.369Z,99862.94
2022-09-17T07:21:12.906Z,99871.94
2022-09-17T07:23:41.971Z,99863.78
2022-09-17T07:26:14.683Z,99867.50
2022-09-17T07:28:43.613Z,99871.81
2022-09-17T07:31:16.464Z,99872.16
2022-09-17T07:33:45.074Z,99872.31
2022-09-17T07:36:15.074Z,99876.75
2022-09-17T07:38:43.982Z,99880.53
2022-09-17T07:41:13.503Z,99882.63
2022-09-17T07:43:42.133Z,99890.38
2022-09-17T07:46:15.096Z,99883.47
2022-09-17T07:48:42.811Z,99884.16
2022-09-17T07:51:16.229Z,99885.59
2022-09-17T07:53:45.369Z,99882.41
2022-09-17T07:56:12.975Z,99889.78
2022-09-17T07:58:40.562Z,99893.63
2022-09-17T08:01:10.030Z,99891.75
2022-09-17T08:03:38.572Z,99896.88
2022-09-17T08:06:08.165Z,99903.00
2022-09-17T08:08:36.948Z,99898.16
2022-09-17T08:11:07.632Z,99897.81
2022-09-17T08:13:35.288Z,99898.72
2022-09-17T08:16:05.314Z,99905.41
2022-09-17T08:18:33.196Z,99898.06
2022-09-17T08:21:01.823Z,99902.25
2022-09-17T08:23:30.927Z,99895.16
2022-09-17T08:26:00.282Z,99893.63
2022-09-17T08:28:32.231Z,99897.47
2022-09-17T08:31:02.804Z,99899.47
2022-09-17T08:33:32.295Z,99904.81
2022-09-17T08:36:00.485Z,99902.16
2022-09-17T08:38:28.737Z,99915.22
2022-09-17T08:41:09.379Z,99908.31
2022-09-17T08:43:43.433Z,99905.63
2022-09-17T08:46:12.264Z,99916.31
2022-09-17T08:48:43.179Z,99912.78
2022-09-17T08:51:22.312Z,99908.56
2022-09-17T08:53:59.748Z,99923.97
2022-09-17T08:56:28.072Z,99919.31
2022-09-17T08:59:12.135Z,99923.25
2022-09-17T09:01:46.438Z,99930.97
2022-09-17T09:04:34.180Z,99915.56
2022-09-17T09:07:05.474Z,99918.66
2022-09-17T09:09:38.540Z,99924.06
2022-09-17T09:12:13.065Z,99934.53
2022-09-17T09:14:51.249Z,99910.28
2022-09-17T09:17:23.471Z,99919.06
2022-09-17T09:19:52.885Z,99923.00
2022-09-17T09:22:36.809Z,99913.69
2022-09-17T09:25:16.797Z,99913.69
2022-09-17T09:27:51.608Z,99907.63
2022-09-17T09:30:23.656Z,99917.16
2022-09-17T09:32:58.759Z,99912.81
2022-09-17T09:35:28.364Z,99922.50
2022-09-17T09:38:03.006Z,99907.09
2022-09-17T09:40:38.892Z,99905.66
2022-09-17T09:43:16.676Z,99911.00
2022-09-17T09:46:10.670Z,99906.16
2022-09-17T09:48:44.260Z,99909.56
2022-09-17T09:51:25.405Z,99903.03
2022-09-17T09:54:08.318Z,99909.97
2022-09-17T09:57:03.884Z,99911.84
2022-09-17T09:59:31.459Z,99910.34
2022-09-17T10:02:00.420Z,99894.66
2022-09-17T10:04:30.183Z,99903.16
2022-09-17T10:07:03.339Z,99902.22
2022-09-17T10:09:32.701Z,99899.75
2022-09-17T10:12:06.143Z,99909.25
2022-09-17T10:14:34.223Z,99908.69
2022-09-17T10:17:21.614Z,99900.41
2022-09-17T10:20:18.300Z,99905.72
2022-09-17T10:22:49.923Z,99904.91
2022-09-17T10:25:28.541Z,99905.03
2022-09-17T10:27:57.346Z,99893.78
2022-09-17T10:30:25.905Z,99893.81
2022-09-17T10:33:19.139Z,99895.69
2022-09-17T10:35:58.123Z,99885.91
2022-09-17T10:38:37.769Z,99891.19
2022-09-17T10:41:14.810Z,99883.56
2022-09-17T10:43:42.821Z,99877.25
2022-09-17T10:46:15.695Z,99889.53
2022-09-17T10:48:50.340Z,99885.41
2022-09-17T10:51:24.051Z,99886.41
2022-09-17T10:54:20.226Z,99871.88
2022-09-17T10:56:52.039Z,99883.22
2022-09-17T10:59:46.457Z,99868.53
2022-09-17T11:02:35.522Z,99852.00
2022-09-17T11:05:21.043Z,99865.69
2022-09-17T11:07:54.380Z,99863.31
2022-09-17T11:10:30.863Z,99871.09
2022-09-17T11:13:11.489Z,99869.28
2022-09-17T11:15:55.009Z,99869.09
2022-09-17T11:18:36.824Z,99871.59
2022-09-17T11:21:28.670Z,99863.19
2022-09-17T11:24:26.709Z,99865.91
2022-09-17T11:27:04.486Z,99854.69
2022-09-17T11:29:49.204Z,99861.56
2022-09-17T11:32:35.505Z,99867.47
2022-09-17T11:35:09.605Z,99872.38
2022-09-17T11:37:48.915Z,99881.41
2022-09-17T11:40:22.078Z,99877.00
2022-09-17T11:42:55.078Z,99862.38
2022-09-17T11:45:28.077Z,99861.72
2022-09-17T11:48:00.937Z,99854.13
2022-09-17T11:50:33.415Z,99855.06
2022-09-17T11:53:07.476Z,99869.72
2022-09-17T11:55:43.581Z,99862.84
2022-09-17T11:58:16.499Z,99850.78
2022-09-17T12:00:51.301Z,99849.16
2022-09-17T12:03:25.709Z,99848.28
2022-09-17T12:05:57.354Z,99865.56
2022-09-17T12:08:34.648Z,99876.72
2022-09-17T12:11:10.764Z,99910.06
2022-09-17T12:13:44.854Z,99919.03
2022-09-17T12:16:17.689Z,99904.75
2022-09-17T12:18:51.732Z,99908.50
2022-09-17T12:21:28.629Z,99898.88
2022-09-17T12:24:01.091Z,99901.38
2022-09-17T12:26:40.473Z,99890.47
2022-09-17T12:29:18.621Z,99882.41
2022-09-17T12:31:53.990Z,99887.09
2022-09-17T12:34:43.901Z,99885.69
2022-09-17T12:37:18.689Z,99874.47
2022-09-17T12:40:11.620Z,99866.16
2022-09-17T12:42:52.432Z,99862.91
2022-09-17T12:45:34.948Z,99865.56
2022-09-17T12:48:43.970Z,99861.34
2022-09-17T12:51:27.701Z,99865.78
2022-09-17T12:53:58.486Z,99859.84
2022-09-17T12:56:39.867Z,99863.22
2022-09-17T12:59:11.359Z,99866.66
2022-09-17T13:01:49.314Z,99864.81
2022-09-17T13:04:56.873Z,99857.22
2022-09-17T13:07:56.460Z,99858.13
2022-09-17T13:11:11.682Z,99855.53
2022-09-17T13:13:47.625Z,99854.69
2022-09-17T13:16:20.709Z,99847.72
2022-09-17T13:19:16.558Z,99848.56
2022-09-17T13:21:54.388Z,99851.06
2022-09-17T13:24:24.999Z,99847.19
2022-09-17T13:26:54.452Z,99841.53
2022-09-17T13:30:07.696Z,99842.50
2022-09-17T13:32:48.126Z,99833.38
2022-09-17T13:35:52.183Z,99834.19
2022-09-17T13:38:23.686Z,99847.44
2022-09-17T13:40:52.500Z,99833.72
2022-09-17T13:43:28.861Z,99844.03
2022-09-17T13:46:18.434Z,99834.03
2022-09-17T13:48:54.426Z,99818.63
2022-09-17T13:51:58.600Z,99823.50
2022-09-17T13:54:38.688Z,99827.66
2022-09-17T13:57:10.805Z,99825.94
2022-09-17T13:59:39.151Z,99828.28
2022-09-17T14:02:31.006Z,99828.66
2022-09-17T14:05:31.986Z,99821.31
2022-09-17T14:08:30.868Z,99816.06
2022-09-17T14:11:05.730Z,99819.06
2022-09-17T14:13:44.897Z,99808.63
2022-09-17T14:16:50.240Z,99803.19
2022-09-17T14:19:34.062Z,99804.84
2022-09-17T14:22:14.229Z,99795.66
2022-09-17T14:24:48.880Z,99802.00
2022-09-17T14:27:24.037Z,99801.13
2022-09-17T14:30:03.037Z,99796.78
2022-09-17T14:32:35.004Z,99805.19
2022-09-17T14:35:04.941Z,99806.75
2022-09-17T14:37:34.696Z,99811.78
2022-09-17T14:40:02.507Z,99811.06
2022-09-17T14:42:36.627Z,99814.78
2022-09-17T14:45:09.272Z,99802.72
2022-09-17T14:47:36.889Z,99804.41
2022-09-17T14:50:24.211Z,99815.91
2022-09-17T14:52:54.388Z,99805.53
2022-09-17T14:55:25.193Z,99803.47
2022-09-17T14:57:54.299Z,99807.97
2022-09-17T15:00:24.769Z,99808.56
2022-09-17T15:02:55.623Z,99806.06
2022-09-17T15:05:27.152Z,99808.72
2022-09-17T15:08:09.050Z,99816.16
2022-09-17T15:10:40.272Z,99805.38
2022-09-17T15:13:13.667Z,99807.50
2022-09-17T15:15:41.043Z,99810.84
2022-09-17T15:18:08.673Z,99807.59
2022-09-17T15:20:36.372Z,99818.91
2022-09-17T15:23:14.197Z,99824.84
2022-09-17T15:25:43.594Z,99809.50
2022-09-17T15:28:30.793Z,99821.72
2022-09-17T15:30:58.454Z,99820.06
2022-09-17T15:33:27.491Z,99814.00
2022-09-17T15:36:08.250Z,99810.53
2022-09-17T15:38:39.098Z,99812.22
2022-09-17T15:41:23.444Z,99809.25
2022-09-17T15:43:51.092Z,99805.59
2022-09-17T15:46:26.447Z,99800.53
2022-09-17T15:48:54.556Z,99802.03
2022-09-17T15:51:27.405Z,99800.16
2022-09-17T15:53:59.309Z,99806.97
2022-09-17T15:56:30.190Z,99799.41
2022-09-17T15:59:01.572Z,99795.34
2022-09-17T16:01:53.628Z,99792.94
2022-09-17T16:04:30.192Z,99791.81
2022-09-17T16:07:16.620Z,99788.88
2022-09-17T16:09:48.732Z,99781.09
2022-09-17T16:12:18.675Z,99777.84
2022-09-17T16:14:51.251Z,99789.41
2022-09-17T16:17:29.184Z,99800.84
2022-09-17T16:19:57.878Z,99813.91
2022-09-17T16:22:29.332Z,99820.91
2022-09-17T16:24:58.249Z,99822.53
2022-09-17T16:27:29.983Z,99829.41
2022-09-17T16:30:03.399Z,99831.81
2022-09-17T16:32:30.810Z,99845.56
2022-09-17T16:34:58.537Z,99840.97
2022-09-17T16:37:26.483Z,99843.41
2022-09-17T16:39:54.093Z,99837.13
2022-09-17T16:42:23.003Z,99838.69
2022-09-17T16:44:50.527Z,99845.75
2022-09-17T16:47:18.139Z,99845.75
2022-09-17T16:49:45.671Z,99856.13
2022-09-17T16:52:13.178Z,99851.69
2022-09-17T16:54:40.716Z,99863.66
2022-09-17T16:57:08.246Z,99855.84
2022-09-17T16:59:37.126Z,99863.63
2022-09-17T17:02:04.890Z,99863.72
2022-09-17T17:04:32.404Z,99863.56
2022-09-17T17:07:00.626Z,99853.09
2022-09-17T17:09:28.154Z,99862.53
2022-09-17T17:11:56.005Z,99865.16
2022-09-17T17:14:23.526Z,99859.94
2022-09-17T17:16:52.408Z,99868.50
2022-09-17T17:19:19.938Z,99866.88
2022-09-17T17:21:50.364Z,99867.81
2022-09-17T17:24:18.364Z,99870.34
2022-09-17T17:26:47.676Z,99880.56
2022-09-17T17:29:16.654Z,99871.81
2022-09-17T17:31:44.281Z,99871.94
2022-09-17T17:34:13.200Z,99878.88
2022-09-17T17:36:40.766Z,99877.16
2022-09-17T17:39:09.351Z,99882.28
2022-09-17T17:41:36.927Z,99891.69
2022-09-17T17:44:04.454Z,99887.31
2022-09-17T17:46:32.100Z,99891.63
2022-09-17T17:48:59.922Z,99895.88
2022-09-17T17:51:28.790Z,99899.31
2022-09-17T17:53:56.316Z,99906.28
2022-09-17T17:56:24.168Z,99902.91
2022-09-17T17:58:55.535Z,99900.38
2022-09-17T18:01:27.089Z,99902.13
2022-09-17T18:03:58.124Z,99909.94
2022-09-17T18:06:26.640Z,99909.97
2022-09-17T18:08:56.073Z,99908.19
2022-09-17T18:11:24.649Z,99909.00
2022-09-17T18:13:53.714Z,99916.88
2022-09-17T18:16:22.367Z,99915.81
2022-09-17T18:18:50.057Z,99912.50
2022-09-17T18:21:21.767Z,99923.75
2022-09-17T18:23:50.577Z,99944.53
2022-09-17T18:26:21.230Z,99973.91
2022-09-17T18:28:48.917Z,99967.66
2022-09-17T18:31:22.700Z,99960.78
2022-09-17T18:33:51.005Z,99963.91
2022-09-17T18:36:18.496Z,99995.28
2022-09-17T18:38:48.374Z,100000.19
2022-09-17T18:41:15.933Z,99994.63
2022-09-17T18:43:45.187Z,99986.47
2022-09-17T18:46:12.773Z,99960.91
2022-09-17T18:48:40.653Z,99971.06
2022-09-17T18:51:13.237Z,99973.22
2022-09-17T18:53:41.873Z,99977.41
2022-09-17T18:56:16.690Z,99988.94
2022-09-17T18:58:46.030Z,99993.81
2022-09-17T19:01:14.034Z,99991.97
2022-09-17T19:03:42.193Z,99999.66
2022-09-17T19:06:12.338Z,100000.31
2022-09-17T19:08:40.937Z,100009.97
2022-09-17T19:11:08.808Z,100013.47
2022-09-17T19:13:38.525Z,100014.44
2022-09-17T19:16:08.810Z,100013.59
2022-09-17T19:18:36.980Z,100019.69
2022-09-17T19:21:06.710Z,100018.81
2022-09-17T19:23:34.464Z,100019.81
2022-09-17T19:26:06.814Z,100021.50
2022-09-17T19:28:35.404Z,100017.13
2022-09-17T19:31:05.127Z,100023.03
2022-09-17T19:33:34.044Z,100025.56
2022-09-17T19:36:02.018Z,100028.16
2022-09-17T19:38:30.132Z,100030.72
2022-09-17T19:40:58.921Z,100030.63
2022-09-17T19:43:26.842Z,100025.25
2022-09-17T19:46:01.166Z,100024.44
2022-09-17T19:48:28.932Z,100032.03
2022-09-17T19:50:58.301Z,100034.56
2022-09-17T19:53:26.206Z,100039.69
2022-09-17T19:55:53.721Z,100037.13
2022-09-17T19:58:21.465Z,100047.41
2022-09-17T20:00:49.081Z,100044.91
2022-09-17T20:03:16.665Z,100044.09
2022-09-17T20:05:44.177Z,100044.25
2022-09-17T20:08:13.058Z,100047.03
2022-09-17T20:10:40.677Z,100047.94
2022-09-17T20:13:08.233Z,100048.03
2022-09-17T20:15:36.295Z,100041.22
2022-09-17T20:18:03.942Z,100041.31
2022-09-17T20:20:31.516Z,100046.53
2022-09-17T20:22:59.023Z,100049.16
2022-09-17T20:25:28.895Z,100048.50
2022-09-17T20:27:56.435Z,100057.13
2022-09-17T20:30:24.004Z,100052.81
2022-09-17T20:32:51.520Z,100059.69
2022-09-17T20:35:19.061Z,100061.44
2022-09-17T20:40:35.449Z,100071.00
2022-09-17T20:43:02.994Z,100055.63
2022-09-17T20:45:30.501Z,100065.09
2022-09-17T20:47:58.092Z,100066.72
2022-09-17T20:50:25.631Z,100072.84
2022-09-17T20:52:53.132Z,100065.91
2022-09-17T20:55:21.390Z,100075.31
2022-09-17T20:57:53.476Z,100075.38
2022-09-17T21:00:21.489Z,100069.31
2022-09-17T21:02:51.685Z,100077.00
2022-09-17T21:05:19.264Z,100080.53
2022-09-17T21:07:46.801Z,100077.81
2022-09-17T21:10:14.444Z,100079.50
2022-09-17T21:12:42.241Z,100080.22
2022-09-17T21:15:11.808Z,100083.00
2022-09-17T21:17:40.595Z,100093.09
2022-09-17T21:20:09.017Z,100088.03
2022-09-17T21:22:36.520Z,100093.09
2022-09-17T21:25:04.212Z,100094.78
2022-09-17T21:27:32.423Z,100098.13
2022-09-17T21:30:00.034Z,100092.06
2022-09-17T21:32:28.930Z,100108.34
2022-09-17T21:34:56.732Z,100097.81
2022-09-17T21:37:24.963Z,100102.16
2022-09-17T21:39:52.809Z,100099.56
2022-09-17T21:42:20.474Z,100094.31
2022-09-17T21:44:47.983Z,100097.72
2022-09-17T21:47:15.507Z,100104.63
2022-09-17T21:49:44.672Z,100090.94
2022-09-17T21:52:12.184Z,100096.94
2022-09-17T21:54:39.728Z,100096.13
2022-09-17T21:57:07.212Z,100096.00
2022-09-17T21:59:34.708Z,100093.38
2022-09-17T22:02:02.300Z,100099.31
2022-09-17T22:04:29.896Z,100094.16
2022-09-17T22:06:59.171Z,100085.63
2022-09-17T22:09:26.787Z,100088.97
2022-09-17T22:11:54.758Z,100082.97
2022-09-17T22:14:24.250Z,100092.53
2022-09-17T22:16:53.447Z,100083.22
2022-09-17T22:19:22.919Z,100090.84
2022-09-17T22:21:52.154Z,100097.84
2022-09-17T22:24:22.590Z,100095.31
2022-09-17T22:26:56.977Z,100101.28
2022-09-17T22:29:26.320Z,100099.56
2022-09-17T22:31:54.008Z,100100.50
2022-09-17T22:34:23.189Z,100103.97
2022-09-17T22:36:50.891Z,100100.56
2022-09-17T22:39:22.525Z,100105.84
2022-09-17T22:41:50.441Z,100098.13
2022-09-17T22:44:19.627Z,100095.66
2022-09-17T22:46:49.501Z,100099.94
2022-09-17T22:49:17.249Z,100097.53
2022-09-17T22:51:46.532Z,100101.03
2022-09-17T22:54:15.729Z,100094.91
2022-09-17T22:56:45.210Z,100096.63
2022-09-17T22:59:12.776Z,100099.94
2022-09-17T23:01:41.632Z,100108.56
2022-09-17T23:04:09.340Z,100100.94
2022-09-17T23:06:38.888Z,100101.75
2022-09-17T23:09:07.323Z,100100.03
2022-09-17T23:11:37.292Z,100099.94
2022-09-17T23:14:09.449Z,100104.19
2022-09-17T23:16:39.606Z,100105.09
2022-09-17T23:19:07.261Z,100108.56
2022-09-17T23:21:34.977Z,100109.28
2022-09-17T23:24:03.504Z,100106.81
2022-09-17T23:26:31.578Z,100102.50
2022-09-17T23:29:04.360Z,100109.38
2022-09-17T23:31:35.519Z,100099.84
2022-09-17T23:34:03.958Z,100103.94
2022-09-17T23:36:33.186Z,100105.09
2022-09-17T23:39:02.122Z,100099.09
2022-09-17T23:41:32.156Z,100097.28
2022-09-17T23:44:02.073Z,100088.81
2022-09-17T23:46:32.133Z,100105.25
2022-09-17T23:49:01.322Z,100100.16
2022-09-17T23:51:30.873Z,100100.03
2022-09-17T23:53:59.334Z,100092.94
2022-09-17T23:56:28.384Z,100106.78
2022-09-17T23:58:57.506Z,100103.25
